KLUF

Luke AFB Airport

Glendale, Arizona, USA
METAR KLUF 222358Z AUTO 21006KT 10SM CLR 29/09 A2980 RMK AO2 SLP081 T02940090 10304 20272 57006 $
Observed Flight Rules
Oct-22 @ 23:58 UTC (an hour ago) Visual Flight Rules
Wind Visibility Clouds
210° at 6 knots 10 miles
  • Clear skies
Temperatures Readings
Current 29°C / 84°F
Dewpoint 9°C / 48°F
Humidity 29%
Altimeter 29.8" Hg
Pressure 1008.1 hPa
Elevation 332
METAR KLUF 222358Z AUTO 21006KT 10SM CLR 29/09 A2980 RMK AO2 SLP081 T02940090 10304 20272 57006 $
Observed Flight Rules
Oct-22 @ 23:58 UTC
(an hour ago)
VFR
Wind Visibility
210° at 6 knots 10 miles
Clouds
  • Clear skies
Temperature Dewpoint
29°C / 84°F 9°C / 48°F
Humidity Altimeter Pressure
29% 29.8" Hg 1008.1 hPa